sensor_id;sensor_type;location;lat;lon;timestamp;pressure;altitude;pressure_sealevel;temperature;humidity
32873;BME280;19224;52.462;16.898;2024-01-10T00:01:52;102291.33;;;-6.10;90.99
32873;BME280;19224;52.462;16.898;2024-01-10T00:04:23;102281.67;;;-6.11;91.31
32873;BME280;19224;52.462;16.898;2024-01-10T00:06:53;102286.41;;;-6.20;92.17
32873;BME280;19224;52.462;16.898;2024-01-10T00:09:23;102293.56;;;-6.10;91.59
32873;BME280;19224;52.462;16.898;2024-01-10T00:11:54;102289.62;;;-6.10;91.46
32873;BME280;19224;52.462;16.898;2024-01-10T00:14:24;102277.34;;;-6.11;91.26
32873;BME280;19224;52.462;16.898;2024-01-10T00:16:55;102281.76;;;-6.10;91.43
32873;BME280;19224;52.462;16.898;2024-01-10T00:19:25;102277.98;;;-6.07;91.39
32873;BME280;19224;52.462;16.898;2024-01-10T00:21:55;102274.38;;;-6.09;91.73
32873;BME280;19224;52.462;16.898;2024-01-10T00:24:26;102270.27;;;-6.04;91.58
32873;BME280;19224;52.462;16.898;2024-01-10T00:26:56;102270.02;;;-6.08;91.78
32873;BME280;19224;52.462;16.898;2024-01-10T00:29:26;102263.16;;;-6.14;91.56
32873;BME280;19224;52.462;16.898;2024-01-10T00:31:57;102264.53;;;-6.13;91.78
32873;BME280;19224;52.462;16.898;2024-01-10T00:34:28;102262.49;;;-6.02;91.22
32873;BME280;19224;52.462;16.898;2024-01-10T00:36:59;102265.27;;;-5.99;91.11
32873;BME280;19224;52.462;16.898;2024-01-10T00:39:29;102258.47;;;-6.04;91.29
32873;BME280;19224;52.462;16.898;2024-01-10T00:41:59;102249.88;;;-6.01;91.42
32873;BME280;19224;52.462;16.898;2024-01-10T00:44:30;102252.25;;;-5.98;91.36
32873;BME280;19224;52.462;16.898;2024-01-10T00:47:03;102251.77;;;-5.99;91.21
32873;BME280;19224;52.462;16.898;2024-01-10T00:49:33;102252.49;;;-6.01;91.43
32873;BME280;19224;52.462;16.898;2024-01-10T00:52:04;102250.90;;;-5.90;90.95
32873;BME280;19224;52.462;16.898;2024-01-10T00:54:34;102253.85;;;-5.84;90.49
32873;BME280;19224;52.462;16.898;2024-01-10T00:57:07;102258.61;;;-5.93;90.32
32873;BME280;19224;52.462;16.898;2024-01-10T00:59:37;102252.34;;;-6.04;90.78
32873;BME280;19224;52.462;16.898;2024-01-10T01:02:07;102250.12;;;-6.05;91.22
32873;BME280;19224;52.462;16.898;2024-01-10T01:04:37;102252.83;;;-6.03;91.04
32873;BME280;19224;52.462;16.898;2024-01-10T01:07:08;102256.67;;;-6.05;90.80
32873;BME280;19224;52.462;16.898;2024-01-10T01:09:38;102262.55;;;-6.01;90.58
32873;BME280;19224;52.462;16.898;2024-01-10T01:12:08;102259.78;;;-5.96;90.39
32873;BME280;19224;52.462;16.898;2024-01-10T01:14:39;102261.91;;;-5.97;91.16
32873;BME280;19224;52.462;16.898;2024-01-10T01:17:09;102266.48;;;-5.93;90.61
32873;BME280;19224;52.462;16.898;2024-01-10T01:19:39;102271.24;;;-5.94;90.39
32873;BME280;19224;52.462;16.898;2024-01-10T01:22:10;102274.69;;;-5.95;90.48
32873;BME280;19224;52.462;16.898;2024-01-10T01:24:41;102284.11;;;-6.06;91.36
32873;BME280;19224;52.462;16.898;2024-01-10T01:27:11;102272.89;;;-6.04;92.23
32873;BME280;19224;52.462;16.898;2024-01-10T01:29:41;102272.98;;;-6.02;91.92
32873;BME280;19224;52.462;16.898;2024-01-10T01:32:11;102269.69;;;-5.98;92.03
32873;BME280;19224;52.462;16.898;2024-01-10T01:34:42;102269.53;;;-6.01;92.01
32873;BME280;19224;52.462;16.898;2024-01-10T01:37:14;102278.71;;;-6.09;92.75
32873;BME280;19224;52.462;16.898;2024-01-10T01:39:44;102274.53;;;-6.06;92.42
32873;BME280;19224;52.462;16.898;2024-01-10T01:42:15;102275.84;;;-6.06;92.35
32873;BME280;19224;52.462;16.898;2024-01-10T01:44:46;102265.84;;;-6.05;91.96
32873;BME280;19224;52.462;16.898;2024-01-10T01:47:16;102263.08;;;-6.08;92.20
32873;BME280;19224;52.462;16.898;2024-01-10T01:49:47;102268.90;;;-6.05;92.37
32873;BME280;19224;52.462;16.898;2024-01-10T01:52:17;102269.78;;;-5.97;92.03
32873;BME280;19224;52.462;16.898;2024-01-10T01:54:48;102264.11;;;-5.96;91.23
32873;BME280;19224;52.462;16.898;2024-01-10T01:57:19;102263.38;;;-5.94;90.57
32873;BME280;19224;52.462;16.898;2024-01-10T01:59:50;102260.94;;;-5.99;90.09
32873;BME280;19224;52.462;16.898;2024-01-10T02:02:21;102257.01;;;-6.07;89.79
32873;BME280;19224;52.462;16.898;2024-01-10T02:04:52;102256.36;;;-6.27;89.69
32873;BME280;19224;52.462;16.898;2024-01-10T02:07:23;102253.16;;;-6.29;89.96
32873;BME280;19224;52.462;16.898;2024-01-10T02:09:53;102248.83;;;-6.29;89.91
32873;BME280;19224;52.462;16.898;2024-01-10T02:12:23;102242.28;;;-6.29;90.13
32873;BME280;19224;52.462;16.898;2024-01-10T02:14:54;102243.58;;;-6.37;90.70
32873;BME280;19224;52.462;16.898;2024-01-10T02:17:24;102243.58;;;-6.45;91.59
32873;BME280;19224;52.462;16.898;2024-01-10T02:20:15;102239.81;;;-6.58;92.64
32873;BME280;19224;52.462;16.898;2024-01-10T02:22:50;102238.17;;;-6.48;92.57
32873;BME280;19224;52.462;16.898;2024-01-10T02:25:20;102235.23;;;-6.38;92.13
32873;BME280;19224;52.462;16.898;2024-01-10T02:27:50;102236.20;;;-6.36;92.30
32873;BME280;19224;52.462;16.898;2024-01-10T02:30:21;102229.33;;;-6.18;91.28
32873;BME280;19224;52.462;16.898;2024-01-10T02:32:51;102226.37;;;-6.08;90.81
32873;BME280;19224;52.462;16.898;2024-01-10T02:35:21;102221.95;;;-6.09;90.67
32873;BME280;19224;52.462;16.898;2024-01-10T02:37:52;102219.48;;;-6.14;90.91
32873;BME280;19224;52.462;16.898;2024-01-10T02:40:23;102212.78;;;-6.17;91.26
32873;BME280;19224;52.462;16.898;2024-01-10T02:42:53;102214.42;;;-6.11;90.86
32873;BME280;19224;52.462;16.898;2024-01-10T02:45:24;102209.67;;;-6.10;90.74
32873;BME280;19224;52.462;16.898;2024-01-10T02:47:54;102206.95;;;-6.11;90.62
32873;BME280;19224;52.462;16.898;2024-01-10T02:50:27;102207.44;;;-6.18;90.99
32873;BME280;19224;52.462;16.898;2024-01-10T02:52:57;102210.48;;;-6.11;91.08
32873;BME280;19224;52.462;16.898;2024-01-10T02:55:27;102213.90;;;-6.12;90.67
32873;BME280;19224;52.462;16.898;2024-01-10T02:57:59;102217.20;;;-6.16;90.30
32873;BME280;19224;52.462;16.898;2024-01-10T03:00:29;102212.97;;;-6.30;90.71
32873;BME280;19224;52.462;16.898;2024-01-10T03:03:00;102213.11;;;-6.19;90.77
32873;BME280;19224;52.462;16.898;2024-01-10T03:05:30;102208.20;;;-6.21;91.07
32873;BME280;19224;52.462;16.898;2024-01-10T03:08:00;102212.44;;;-6.23;90.81
32873;BME280;19224;52.462;16.898;2024-01-10T03:10:31;102215.40;;;-6.17;90.24
32873;BME280;19224;52.462;16.898;2024-01-10T03:13:01;102220.16;;;-6.26;90.60
32873;BME280;19224;52.462;16.898;2024-01-10T03:15:32;102208.45;;;-6.16;90.37
32873;BME280;19224;52.462;16.898;2024-01-10T03:18:02;102204.42;;;-6.18;90.70
32873;BME280;19224;52.462;16.898;2024-01-10T03:20:33;102209.67;;;-6.10;90.58
32873;BME280;19224;52.462;16.898;2024-01-10T03:23:03;102205.88;;;-6.07;90.44
32873;BME280;19224;52.462;16.898;2024-01-10T03:25:34;102208.98;;;-6.06;90.26
32873;BME280;19224;52.462;16.898;2024-01-10T03:28:05;102202.58;;;-5.95;90.00
32873;BME280;19224;52.462;16.898;2024-01-10T03:30:35;102205.48;;;-5.89;89.48
32873;BME280;19224;52.462;16.898;2024-01-10T03:33:08;102206.50;;;-5.87;89.06
32873;BME280;19224;52.462;16.898;2024-01-10T03:35:38;102208.88;;;-5.91;88.94
32873;BME280;19224;52.462;16.898;2024-01-10T03:38:09;102196.36;;;-5.97;88.87
32873;BME280;19224;52.462;16.898;2024-01-10T03:40:39;102211.76;;;-6.03;88.92
32873;BME280;19224;52.462;16.898;2024-01-10T03:43:10;102204.91;;;-6.25;89.91
32873;BME280;19224;52.462;16.898;2024-01-10T03:45:42;102202.48;;;-6.22;90.37
32873;BME280;19224;52.462;16.898;2024-01-10T03:48:13;102202.97;;;-6.21;90.59
32873;BME280;19224;52.462;16.898;2024-01-10T03:50:43;102204.13;;;-6.32;91.12
32873;BME280;19224;52.462;16.898;2024-01-10T03:53:13;102203.12;;;-6.34;91.54
32873;BME280;19224;52.462;16.898;2024-01-10T03:55:44;102211.66;;;-6.30;91.76
32873;BME280;19224;52.462;16.898;2024-01-10T03:58:14;102201.80;;;-6.26;91.33
32873;BME280;19224;52.462;16.898;2024-01-10T04:00:44;102211.64;;;-6.46;92.33
32873;BME280;19224;52.462;16.898;2024-01-10T04:03:14;102204.77;;;-6.36;92.18
32873;BME280;19224;52.462;16.898;2024-01-10T04:05:46;102208.05;;;-6.48;92.97
32873;BME280;19224;52.462;16.898;2024-01-10T04:08:16;102202.81;;;-6.40;92.65
32873;BME280;19224;52.462;16.898;2024-01-10T04:10:46;102205.68;;;-6.35;92.42
32873;BME280;19224;52.462;16.898;2024-01-10T04:13:17;102194.03;;;-6.32;91.80
32873;BME280;19224;52.462;16.898;2024-01-10T04:15:47;102199.86;;;-6.38;92.13
32873;BME280;19224;52.462;16.898;2024-01-10T04:18:18;102195.20;;;-6.43;92.53
32873;BME280;19224;52.462;16.898;2024-01-10T04:20:49;102191.59;;;-6.45;92.87
32873;BME280;19224;52.462;16.898;2024-01-10T04:23:20;102196.08;;;-6.35;92.02
32873;BME280;19224;52.462;16.898;2024-01-10T04:25:50;102188.80;;;-6.40;91.85
32873;BME280;19224;52.462;16.898;2024-01-10T04:28:21;102191.11;;;-6.38;92.00
32873;BME280;19224;52.462;16.898;2024-01-10T04:30:51;102187.82;;;-6.42;91.90
32873;BME280;19224;52.462;16.898;2024-01-10T04:33:21;102193.30;;;-6.46;91.61
32873;BME280;19224;52.462;16.898;2024-01-10T04:35:51;102179.80;;;-6.53;91.67
32873;BME280;19224;52.462;16.898;2024-01-10T04:38:22;102193.64;;;-6.48;91.87
32873;BME280;19224;52.462;16.898;2024-01-10T04:40:53;102185.77;;;-6.56;91.79
32873;BME280;19224;52.462;16.898;2024-01-10T04:43:24;102195.77;;;-6.57;92.09
32873;BME280;19224;52.462;16.898;2024-01-10T04:45:54;102186.30;;;-6.55;92.23
32873;BME280;19224;52.462;16.898;2024-01-10T04:48:28;102183.83;;;-6.52;92.26
32873;BME280;19224;52.462;16.898;2024-01-10T04:50:59;102186.14;;;-6.66;93.68
32873;BME280;19224;52.462;16.898;2024-01-10T04:53:29;102177.52;;;-6.47;93.04
32873;BME280;19224;52.462;16.898;2024-01-10T04:56:03;102170.88;;;-6.33;92.38
32873;BME280;19224;52.462;16.898;2024-01-10T04:58:36;102168.41;;;-6.22;91.89
32873;BME280;19224;52.462;16.898;2024-01-10T05:01:08;102175.69;;;-6.16;91.67
32873;BME280;19224;52.462;16.898;2024-01-10T05:03:39;102177.88;;;-6.24;91.46
32873;BME280;19224;52.462;16.898;2024-01-10T05:06:10;102172.83;;;-6.29;91.60
32873;BME280;19224;52.462;16.898;2024-01-10T05:08:40;102171.67;;;-6.26;91.47
32873;BME280;19224;52.462;16.898;2024-01-10T05:11:11;102168.95;;;-6.19;91.13
32873;BME280;19224;52.462;16.898;2024-01-10T05:13:43;102170.44;;;-6.16;90.91
32873;BME280;19224;52.462;16.898;2024-01-10T05:16:13;102163.30;;;-6.11;90.64
32873;BME280;19224;52.462;16.898;2024-01-10T05:18:44;102158.11;;;-6.09;90.47
32873;BME280;19224;52.462;16.898;2024-01-10T05:21:15;102159.03;;;-6.09;90.43
32873;BME280;19224;52.462;16.898;2024-01-10T05:23:46;102168.55;;;-6.11;90.50
32873;BME280;19224;52.462;16.898;2024-01-10T05:26:16;102156.08;;;-6.15;90.63
32873;BME280;19224;52.462;16.898;2024-01-10T05:28:46;102164.61;;;-6.11;90.83
32873;BME280;19224;52.462;16.898;2024-01-10T05:31:17;102165.98;;;-6.09;90.61
32873;BME280;19224;52.462;16.898;2024-01-10T05:33:48;102162.97;;;-6.17;90.50
32873;BME280;19224;52.462;16.898;2024-01-10T05:36:21;102165.92;;;-6.11;90.52
32873;BME280;19224;52.462;16.898;2024-01-10T05:38:50;102161.17;;;-6.18;90.81
32873;BME280;19224;52.462;16.898;2024-01-10T05:41:21;102154.77;;;-6.15;90.95
32873;BME280;19224;52.462;16.898;2024-01-10T05:43:51;102167.30;;;-6.17;90.60
32873;BME280;19224;52.462;16.898;2024-01-10T05:46:21;102168.55;;;-6.19;90.72
32873;BME280;19224;52.462;16.898;2024-01-10T05:48:51;102163.95;;;-6.23;90.95
32873;BME280;19224;52.462;16.898;2024-01-10T05:51:22;102167.48;;;-6.14;90.76
32873;BME280;19224;52.462;16.898;2024-01-10T05:53:52;102166.41;;;-6.10;90.68
32873;BME280;19224;52.462;16.898;2024-01-10T05:56:23;102156.66;;;-6.20;90.59
32873;BME280;19224;52.462;16.898;2024-01-10T05:58:53;102165.35;;;-6.21;90.77
32873;BME280;19224;52.462;16.898;2024-01-10T06:01:23;102150.36;;;-6.24;91.03
32873;BME280;19224;52.462;16.898;2024-01-10T06:03:54;102151.42;;;-6.20;91.07
32873;BME280;19224;52.462;16.898;2024-01-10T06:06:25;102152.58;;;-6.15;91.05
32873;BME280;19224;52.462;16.898;2024-01-10T06:08:56;102147.98;;;-6.19;91.17
32873;BME280;19224;52.462;16.898;2024-01-10T06:11:26;102152.48;;;-6.17;91.17
32873;BME280;19224;52.462;16.898;2024-01-10T06:13:59;102145.94;;;-6.17;90.86
32873;BME280;19224;52.462;16.898;2024-01-10T06:16:30;102142.09;;;-6.15;91.29
32873;BME280;19224;52.462;16.898;2024-01-10T06:19:00;102137.59;;;-6.18;91.95
32873;BME280;19224;52.462;16.898;2024-01-10T06:21:30;102145.20;;;-6.22;92.50
32873;BME280;19224;52.462;16.898;2024-01-10T06:24:00;102144.15;;;-6.26;92.71
32873;BME280;19224;52.462;16.898;2024-01-10T06:26:31;102139.34;;;-6.26;92.75
32873;BME280;19224;52.462;16.898;2024-01-10T06:29:02;102144.96;;;-6.19;92.37
32873;BME280;19224;52.462;16.898;2024-01-10T06:31:32;102146.89;;;-6.07;91.88
32873;BME280;19224;52.462;16.898;2024-01-10T06:34:03;102148.59;;;-6.07;91.65
32873;BME280;19224;52.462;16.898;2024-01-10T06:36:33;102150.68;;;-6.10;91.66
32873;BME280;19224;52.462;16.898;2024-01-10T06:39:04;102147.23;;;-6.09;91.67
32873;BME280;19224;52.462;16.898;2024-01-10T06:41:38;102149.13;;;-6.14;91.42
32873;BME280;19224;52.462;16.898;2024-01-10T06:44:08;102147.59;;;-6.27;91.90
32873;BME280;19224;52.462;16.898;2024-01-10T06:46:38;102148.42;;;-6.28;92.16
32873;BME280;19224;52.462;16.898;2024-01-10T06:49:15;102150.74;;;-6.42;93.18
32873;BME280;19224;52.462;16.898;2024-01-10T06:51:46;102145.07;;;-6.33;93.00
32873;BME280;19224;52.462;16.898;2024-01-10T06:54:19;102141.13;;;-6.25;92.65
32873;BME280;19224;52.462;16.898;2024-01-10T06:56:48;102148.61;;;-6.33;92.93
32873;BME280;19224;52.462;16.898;2024-01-10T06:59:18;102149.05;;;-6.24;92.47
32873;BME280;19224;52.462;16.898;2024-01-10T07:01:54;102142.00;;;-6.17;91.86
32873;BME280;19224;52.462;16.898;2024-01-10T07:04:27;102138.64;;;-6.14;91.49
32873;BME280;19224;52.462;16.898;2024-01-10T07:06:59;102137.23;;;-6.08;91.21
32873;BME280;19224;52.462;16.898;2024-01-10T07:09:29;102140.83;;;-6.06;91.21
32873;BME280;19224;52.462;16.898;2024-01-10T07:12:00;102138.22;;;-6.14;91.22
32873;BME280;19224;52.462;16.898;2024-01-10T07:14:31;102133.89;;;-6.13;91.17
32873;BME280;19224;52.462;16.898;2024-01-10T07:17:02;102125.70;;;-6.19;91.33
32873;BME280;19224;52.462;16.898;2024-01-10T07:19:34;102132.20;;;-6.21;91.23
32873;BME280;19224;52.462;16.898;2024-01-10T07:22:04;102135.25;;;-6.12;90.83
32873;BME280;19224;52.462;16.898;2024-01-10T07:24:35;102129.22;;;-6.11;90.60
32873;BME280;19224;52.462;16.898;2024-01-10T07:27:05;102132.05;;;-6.06;90.47
32873;BME280;19224;52.462;16.898;2024-01-10T07:29:36;102127.23;;;-6.07;90.50
32873;BME280;19224;52.462;16.898;2024-01-10T07:32:08;102130.34;;;-6.06;90.58
32873;BME280;19224;52.462;16.898;2024-01-10T07:34:42;102135.77;;;-6.11;90.86
32873;BME280;19224;52.462;16.898;2024-01-10T07:37:14;102128.11;;;-6.06;90.93
32873;BME280;19224;52.462;16.898;2024-01-10T07:39:46;102129.01;;;-5.98;90.80
32873;BME280;19224;52.462;16.898;2024-01-10T07:42:16;102134.63;;;-5.90;90.56
32873;BME280;19224;52.462;16.898;2024-01-10T07:44:47;102127.11;;;-5.92;90.76
32873;BME280;19224;52.462;16.898;2024-01-10T07:47:17;102130.58;;;-5.84;90.74
32873;BME280;19224;52.462;16.898;2024-01-10T07:49:48;102139.59;;;-5.69;90.25
32873;BME280;19224;52.462;16.898;2024-01-10T07:52:19;102129.95;;;-5.61;89.77
32873;BME280;19224;52.462;16.898;2024-01-10T07:54:50;102133.16;;;-5.49;89.42
32873;BME280;19224;52.462;16.898;2024-01-10T07:57:23;102137.94;;;-5.40;89.37
32873;BME280;19224;52.462;16.898;2024-01-10T07:59:54;102140.25;;;-5.38;89.29
32873;BME280;19224;52.462;16.898;2024-01-10T08:02:27;102144.06;;;-5.32;89.82
32873;BME280;19224;52.462;16.898;2024-01-10T08:04:57;102147.45;;;-5.25;89.61
32873;BME280;19224;52.462;16.898;2024-01-10T08:07:28;102157.16;;;-5.14;89.58
32873;BME280;19224;52.462;16.898;2024-01-10T08:09:59;102156.61;;;-5.07;89.54
32873;BME280;19224;52.462;16.898;2024-01-10T08:12:29;102163.34;;;-4.95;89.10
32873;BME280;19224;52.462;16.898;2024-01-10T08:14:59;102160.19;;;-4.88;88.90
32873;BME280;19224;52.462;16.898;2024-01-10T08:17:30;102158.87;;;-4.78;88.90
32873;BME280;19224;52.462;16.898;2024-01-10T08:20:01;102161.06;;;-4.78;89.18
32873;BME280;19224;52.462;16.898;2024-01-10T08:22:33;102164.95;;;-4.79;89.56
32873;BME280;19224;52.462;16.898;2024-01-10T08:25:04;102165.65;;;-4.74;89.94
32873;BME280;19224;52.462;16.898;2024-01-10T08:27:34;102164.97;;;-4.61;89.07
32873;BME280;19224;52.462;16.898;2024-01-10T08:30:07;102172.07;;;-4.58;89.59
32873;BME280;19224;52.462;16.898;2024-01-10T08:32:38;102168.67;;;-4.46;89.26
32873;BME280;19224;52.462;16.898;2024-01-10T08:35:09;102165.70;;;-4.35;89.02
32873;BME280;19224;52.462;16.898;2024-01-10T08:37:40;102156.91;;;-4.26;88.14
32873;BME280;19224;52.462;16.898;2024-01-10T08:40:12;102170.80;;;-4.19;88.29
32873;BME280;19224;52.462;16.898;2024-01-10T08:42:44;102167.09;;;-4.03;87.75
32873;BME280;19224;52.462;16.898;2024-01-10T08:45:14;102160.69;;;-3.89;86.70
32873;BME280;19224;52.462;16.898;2024-01-10T08:47:45;102167.54;;;-3.83;85.55
32873;BME280;19224;52.462;16.898;2024-01-10T08:50:15;102167.86;;;-3.76;84.86
32873;BME280;19224;52.462;16.898;2024-01-10T08:52:48;102166.17;;;-3.64;84.08
32873;BME280;19224;52.462;16.898;2024-01-10T08:55:18;102166.06;;;-3.77;84.06
32873;BME280;19224;52.462;16.898;2024-01-10T08:57:48;102160.23;;;-3.70;84.91
32873;BME280;19224;52.462;16.898;2024-01-10T09:00:19;102159.70;;;-3.61;85.24
32873;BME280;19224;52.462;16.898;2024-01-10T09:02:50;102157.19;;;-3.58;85.89
32873;BME280;19224;52.462;16.898;2024-01-10T09:05:23;102158.14;;;-3.56;86.37
32873;BME280;19224;52.462;16.898;2024-01-10T09:07:59;102160.38;;;-3.56;86.56
32873;BME280;19224;52.462;16.898;2024-01-10T09:10:29;102162.28;;;-3.52;85.85
32873;BME280;19224;52.462;16.898;2024-01-10T09:13:00;102152.80;;;-3.37;85.63
32873;BME280;19224;52.462;16.898;2024-01-10T09:15:34;102160.61;;;-3.18;84.49
32873;BME280;19224;52.462;16.898;2024-01-10T09:18:04;102161.16;;;-3.16;84.46
32873;BME280;19224;52.462;16.898;2024-01-10T09:20:35;102162.03;;;-3.26;85.32
32873;BME280;19224;52.462;16.898;2024-01-10T09:23:06;102163.47;;;-3.01;84.67
32873;BME280;19224;52.462;16.898;2024-01-10T09:25:37;102162.30;;;-2.98;84.21
32873;BME280;19224;52.462;16.898;2024-01-10T09:28:08;102160.91;;;-2.89;84.18
32873;BME280;19224;52.462;16.898;2024-01-10T09:30:38;102162.22;;;-2.89;83.50
32873;BME280;19224;52.462;16.898;2024-01-10T09:33:09;102165.87;;;-2.74;83.41
32873;BME280;19224;52.462;16.898;2024-01-10T09:35:39;102160.11;;;-2.64;82.96
32873;BME280;19224;52.462;16.898;2024-01-10T09:38:10;102157.88;;;-2.65;82.19
32873;BME280;19224;52.462;16.898;2024-01-10T09:40:43;102154.19;;;-2.70;81.69
32873;BME280;19224;52.462;16.898;2024-01-10T09:43:13;102152.42;;;-2.69;81.83
32873;BME280;19224;52.462;16.898;2024-01-10T09:45:47;102151.11;;;-2.69;82.35
32873;BME280;19224;52.462;16.898;2024-01-10T09:48:18;102147.95;;;-2.48;81.82
32873;BME280;19224;52.462;16.898;2024-01-10T09:51:01;102145.89;;;-2.44;80.90
32873;BME280;19224;52.462;16.898;2024-01-10T09:53:28;102143.44;;;-2.63;80.49
32873;BME280;19224;52.462;16.898;2024-01-10T09:56:00;102140.44;;;-2.61;79.95
32873;BME280;19224;52.462;16.898;2024-01-10T09:58:32;102147.30;;;-2.66;79.24
32873;BME280;19224;52.462;16.898;2024-01-10T10:01:05;102147.50;;;-2.60;79.03
32873;BME280;19224;52.462;16.898;2024-01-10T10:03:45;102144.10;;;-2.45;78.57
32873;BME280;19224;52.462;16.898;2024-01-10T10:06:16;102140.11;;;-2.35;78.00
32873;BME280;19224;52.462;16.898;2024-01-10T10:08:55;102143.77;;;-2.31;77.79
32873;BME280;19224;52.462;16.898;2024-01-10T10:11:21;102134.70;;;-2.27;76.43
32873;BME280;19224;52.462;16.898;2024-01-10T10:13:52;102135.07;;;-2.52;76.67
32873;BME280;19224;52.462;16.898;2024-01-10T10:16:24;102135.37;;;-2.32;76.70
32873;BME280;19224;52.462;16.898;2024-01-10T10:18:56;102141.96;;;-2.09;75.79
32873;BME280;19224;52.462;16.898;2024-01-10T10:21:27;102148.14;;;-1.96;75.06
32873;BME280;19224;52.462;16.898;2024-01-10T10:24:01;102139.09;;;-1.90;75.13
32873;BME280;19224;52.462;16.898;2024-01-10T10:26:34;102139.09;;;-1.77;74.89
32873;BME280;19224;52.462;16.898;2024-01-10T10:29:04;102134.79;;;-1.88;74.52
32873;BME280;19224;52.462;16.898;2024-01-10T10:31:36;102133.99;;;-1.98;75.30
32873;BME280;19224;52.462;16.898;2024-01-10T10:34:06;102131.27;;;-2.12;75.00
32873;BME280;19224;52.462;16.898;2024-01-10T10:36:39;102124.80;;;-1.84;73.59
32873;BME280;19224;52.462;16.898;2024-01-10T10:39:09;102118.37;;;-2.04;73.35
32873;BME280;19224;52.462;16.898;2024-01-10T10:41:41;102120.92;;;-1.81;73.87
32873;BME280;19224;52.462;16.898;2024-01-10T10:44:14;102127.33;;;-1.99;74.26
32873;BME280;19224;52.462;16.898;2024-01-10T10:46:46;102116.61;;;-2.04;74.51
32873;BME280;19224;52.462;16.898;2024-01-10T10:49:19;102111.22;;;-1.82;74.00
32873;BME280;19224;52.462;16.898;2024-01-10T10:51:51;102108.75;;;-1.63;73.53
32873;BME280;19224;52.462;16.898;2024-01-10T10:54:24;102113.78;;;-1.58;73.72
32873;BME280;19224;52.462;16.898;2024-01-10T10:56:58;102106.02;;;-1.40;73.03
32873;BME280;19224;52.462;16.898;2024-01-10T10:59:30;102111.64;;;-1.56;73.34
32873;BME280;19224;52.462;16.898;2024-01-10T11:02:02;102101.44;;;-1.45;72.80
32873;BME280;19224;52.462;16.898;2024-01-10T11:04:33;102098.58;;;-1.51;72.45
32873;BME280;19224;52.462;16.898;2024-01-10T11:07:05;102094.59;;;-1.53;73.27
32873;BME280;19224;52.462;16.898;2024-01-10T11:09:40;102101.89;;;-1.58;72.47
32873;BME280;19224;52.462;16.898;2024-01-10T11:18:02;102093.40;;;-1.22;72.66
32873;BME280;19224;52.462;16.898;2024-01-10T11:23:47;102095.36;;;-1.15;72.58
32873;BME280;19224;52.462;16.898;2024-01-10T11:26:20;102094.70;;;-1.08;71.09
32873;BME280;19224;52.462;16.898;2024-01-10T11:28:51;102091.01;;;-1.13;71.39
32873;BME280;19224;52.462;16.898;2024-01-10T11:31:32;102083.55;;;-1.12;70.41
32873;BME280;19224;52.462;16.898;2024-01-10T11:34:03;102077.14;;;-1.06;70.08
32873;BME280;19224;52.462;16.898;2024-01-10T11:36:34;102066.47;;;-1.23;71.11
32873;BME280;19224;52.462;16.898;2024-01-10T11:39:07;102070.33;;;-1.12;71.70
32873;BME280;19224;52.462;16.898;2024-01-10T11:41:43;102058.82;;;-1.14;71.73
32873;BME280;19224;52.462;16.898;2024-01-10T11:44:27;102055.50;;;-0.93;70.67
32873;BME280;19224;52.462;16.898;2024-01-10T11:46:59;102052.93;;;-0.90;70.98
32873;BME280;19224;52.462;16.898;2024-01-10T11:49:30;102064.88;;;-1.18;68.40
32873;BME280;19224;52.462;16.898;2024-01-10T11:52:00;102067.44;;;-1.21;69.42
32873;BME280;19224;52.462;16.898;2024-01-10T11:54:43;102063.17;;;-1.16;69.94
32873;BME280;19224;52.462;16.898;2024-01-10T11:57:21;102057.86;;;-1.02;69.64
32873;BME280;19224;52.462;16.898;2024-01-10T11:59:55;102057.59;;;-0.97;68.06
32873;BME280;19224;52.462;16.898;2024-01-10T12:02:33;102059.67;;;-1.15;65.79
32873;BME280;19224;52.462;16.898;2024-01-10T12:05:06;102057.97;;;-1.13;65.72
32873;BME280;19224;52.462;16.898;2024-01-10T12:07:37;102048.73;;;-0.99;67.02
32873;BME280;19224;52.462;16.898;2024-01-10T12:10:09;102048.64;;;-1.16;69.36
32873;BME280;19224;52.462;16.898;2024-01-10T12:12:40;102043.63;;;-1.07;70.10
32873;BME280;19224;52.462;16.898;2024-01-10T12:15:11;102041.84;;;-1.08;70.22
32873;BME280;19224;52.462;16.898;2024-01-10T12:17:43;102033.48;;;-0.92;70.78
32873;BME280;19224;52.462;16.898;2024-01-10T12:20:14;102030.59;;;-0.70;69.58
32873;BME280;19224;52.462;16.898;2024-01-10T12:22:46;102041.25;;;-0.67;69.60
32873;BME280;19224;52.462;16.898;2024-01-10T12:25:16;102029.85;;;-0.66;67.83
32873;BME280;19224;52.462;16.898;2024-01-10T12:27:48;102025.88;;;-0.66;68.51
32873;BME280;19224;52.462;16.898;2024-01-10T12:30:18;102023.91;;;-0.57;68.92
32873;BME280;19224;52.462;16.898;2024-01-10T12:32:51;102024.50;;;-0.83;70.17
32873;BME280;19224;52.462;16.898;2024-01-10T12:35:22;102014.86;;;-0.81;68.99
32873;BME280;19224;52.462;16.898;2024-01-10T12:37:56;102023.05;;;-0.72;69.10
32873;BME280;19224;52.462;16.898;2024-01-10T12:40:27;102016.56;;;-0.52;68.62
32873;BME280;19224;52.462;16.898;2024-01-10T12:43:05;102017.36;;;-0.39;68.16
32873;BME280;19224;52.462;16.898;2024-01-10T12:45:36;102020.66;;;-0.30;67.26
32873;BME280;19224;52.462;16.898;2024-01-10T12:48:07;102015.09;;;-0.24;66.55
32873;BME280;19224;52.462;16.898;2024-01-10T12:50:39;102023.30;;;-0.32;67.12
32873;BME280;19224;52.462;16.898;2024-01-10T12:53:10;102018.02;;;-0.30;67.83
32873;BME280;19224;52.462;16.898;2024-01-10T12:55:41;102013.70;;;-0.27;67.67
32873;BME280;19224;52.462;16.898;2024-01-10T12:58:11;102010.72;;;-0.23;67.37
32873;BME280;19224;52.462;16.898;2024-01-10T13:00:42;102007.72;;;-0.20;68.15
32873;BME280;19224;52.462;16.898;2024-01-10T13:03:12;102001.73;;;-0.28;69.12
32873;BME280;19224;52.462;16.898;2024-01-10T13:05:43;101998.91;;;-0.36;69.00
32873;BME280;19224;52.462;16.898;2024-01-10T13:08:14;101995.23;;;-0.25;68.46
32873;BME280;19224;52.462;16.898;2024-01-10T13:10:45;101995.19;;;-0.10;68.06